sensor_id;sensor_type;location;lat;lon;timestamp;P1;durP1;ratioP1;P2;durP2;ratioP2
417;SDS011;49;48.530;9.200;2024-01-27T00:00:26;8.17;;;4.47;;
417;SDS011;49;48.530;9.200;2024-01-27T00:02:54;10.70;;;5.07;;
417;SDS011;49;48.530;9.200;2024-01-27T00:05:21;8.50;;;4.23;;
417;SDS011;49;48.530;9.200;2024-01-27T00:07:48;8.07;;;4.70;;
417;SDS011;49;48.530;9.200;2024-01-27T00:10:15;13.07;;;4.97;;
417;SDS011;49;48.530;9.200;2024-01-27T00:12:42;9.70;;;4.60;;
417;SDS011;49;48.530;9.200;2024-01-27T00:15:09;9.93;;;5.47;;
417;SDS011;49;48.530;9.200;2024-01-27T00:17:36;10.03;;;4.80;;
417;SDS011;49;48.530;9.200;2024-01-27T00:20:05;15.67;;;5.30;;
417;SDS011;49;48.530;9.200;2024-01-27T00:22:33;8.80;;;4.63;;
417;SDS011;49;48.530;9.200;2024-01-27T00:24:59;14.27;;;4.83;;
417;SDS011;49;48.530;9.200;2024-01-27T00:27:26;9.50;;;4.70;;
417;SDS011;49;48.530;9.200;2024-01-27T00:29:53;13.23;;;5.60;;
417;SDS011;49;48.530;9.200;2024-01-27T00:32:20;13.57;;;5.70;;
417;SDS011;49;48.530;9.200;2024-01-27T00:34:47;8.93;;;5.23;;
417;SDS011;49;48.530;9.200;2024-01-27T00:37:15;10.33;;;6.67;;
417;SDS011;49;48.530;9.200;2024-01-27T00:39:42;12.30;;;5.33;;
417;SDS011;49;48.530;9.200;2024-01-27T00:42:10;11.30;;;5.57;;
417;SDS011;49;48.530;9.200;2024-01-27T00:44:37;9.20;;;5.20;;
417;SDS011;49;48.530;9.200;2024-01-27T00:47:04;11.60;;;5.80;;
417;SDS011;49;48.530;9.200;2024-01-27T00:49:31;9.27;;;4.97;;
417;SDS011;49;48.530;9.200;2024-01-27T00:51:58;9.53;;;4.93;;
417;SDS011;49;48.530;9.200;2024-01-27T00:54:26;10.33;;;4.83;;
417;SDS011;49;48.530;9.200;2024-01-27T00:56:53;9.47;;;4.80;;
417;SDS011;49;48.530;9.200;2024-01-27T00:59:20;12.03;;;4.57;;
417;SDS011;49;48.530;9.200;2024-01-27T01:01:47;9.37;;;4.30;;
417;SDS011;49;48.530;9.200;2024-01-27T01:04:14;9.73;;;4.83;;
417;SDS011;49;48.530;9.200;2024-01-27T01:06:41;8.60;;;5.30;;
417;SDS011;49;48.530;9.200;2024-01-27T01:09:08;12.37;;;6.40;;
417;SDS011;49;48.530;9.200;2024-01-27T01:11:36;7.37;;;4.73;;
417;SDS011;49;48.530;9.200;2024-01-27T01:14:03;14.10;;;6.40;;
417;SDS011;49;48.530;9.200;2024-01-27T01:16:30;18.77;;;5.80;;
417;SDS011;49;48.530;9.200;2024-01-27T01:18:57;11.53;;;5.83;;
417;SDS011;49;48.530;9.200;2024-01-27T01:21:24;6.97;;;4.60;;
417;SDS011;49;48.530;9.200;2024-01-27T01:23:51;10.77;;;5.50;;
417;SDS011;49;48.530;9.200;2024-01-27T01:26:18;9.50;;;6.23;;
417;SDS011;49;48.530;9.200;2024-01-27T01:28:47;12.37;;;6.27;;
417;SDS011;49;48.530;9.200;2024-01-27T01:31:13;12.00;;;5.63;;
417;SDS011;49;48.530;9.200;2024-01-27T01:33:40;11.60;;;5.93;;
417;SDS011;49;48.530;9.200;2024-01-27T01:36:07;49.60;;;7.53;;
417;SDS011;49;48.530;9.200;2024-01-27T01:38:35;14.40;;;8.17;;
417;SDS011;49;48.530;9.200;2024-01-27T01:41:02;11.13;;;5.00;;
417;SDS011;49;48.530;9.200;2024-01-27T01:43:29;12.93;;;5.63;;
417;SDS011;49;48.530;9.200;2024-01-27T01:45:57;14.00;;;5.87;;
417;SDS011;49;48.530;9.200;2024-01-27T01:48:24;10.37;;;6.13;;
417;SDS011;49;48.530;9.200;2024-01-27T01:50:51;12.43;;;6.23;;
417;SDS011;49;48.530;9.200;2024-01-27T01:53:18;10.20;;;5.60;;
417;SDS011;49;48.530;9.200;2024-01-27T01:55:44;14.37;;;5.37;;
417;SDS011;49;48.530;9.200;2024-01-27T01:58:12;10.87;;;5.50;;
417;SDS011;49;48.530;9.200;2024-01-27T02:00:39;6.20;;;4.30;;
417;SDS011;49;48.530;9.200;2024-01-27T02:03:11;12.43;;;5.70;;
417;SDS011;49;48.530;9.200;2024-01-27T02:05:38;13.30;;;6.10;;
417;SDS011;49;48.530;9.200;2024-01-27T02:08:05;14.33;;;6.00;;
417;SDS011;49;48.530;9.200;2024-01-27T02:10:33;13.17;;;6.53;;
417;SDS011;49;48.530;9.200;2024-01-27T02:13:02;24.93;;;7.03;;
417;SDS011;49;48.530;9.200;2024-01-27T02:18:05;11.23;;;6.03;;
417;SDS011;49;48.530;9.200;2024-01-27T02:20:33;10.87;;;6.33;;
417;SDS011;49;48.530;9.200;2024-01-27T02:23:00;10.67;;;5.47;;
417;SDS011;49;48.530;9.200;2024-01-27T02:25:31;12.80;;;6.40;;
417;SDS011;49;48.530;9.200;2024-01-27T02:27:58;9.30;;;6.00;;
417;SDS011;49;48.530;9.200;2024-01-27T02:30:25;13.93;;;6.37;;
417;SDS011;49;48.530;9.200;2024-01-27T02:32:53;14.60;;;6.20;;
417;SDS011;49;48.530;9.200;2024-01-27T02:35:21;10.07;;;5.93;;
417;SDS011;49;48.530;9.200;2024-01-27T02:37:48;13.97;;;6.80;;
417;SDS011;49;48.530;9.200;2024-01-27T02:40:15;11.57;;;6.50;;
417;SDS011;49;48.530;9.200;2024-01-27T02:42:43;22.70;;;6.50;;
417;SDS011;49;48.530;9.200;2024-01-27T02:45:10;13.80;;;6.50;;
417;SDS011;49;48.530;9.200;2024-01-27T02:47:37;16.20;;;6.47;;
417;SDS011;49;48.530;9.200;2024-01-27T02:50:05;9.80;;;5.50;;
417;SDS011;49;48.530;9.200;2024-01-27T02:52:32;14.80;;;5.60;;
417;SDS011;49;48.530;9.200;2024-01-27T02:54:59;10.47;;;6.20;;
417;SDS011;49;48.530;9.200;2024-01-27T02:57:26;14.10;;;6.70;;
417;SDS011;49;48.530;9.200;2024-01-27T02:59:54;19.47;;;6.40;;
417;SDS011;49;48.530;9.200;2024-01-27T03:02:21;15.73;;;6.23;;
417;SDS011;49;48.530;9.200;2024-01-27T03:04:48;9.20;;;5.57;;
417;SDS011;49;48.530;9.200;2024-01-27T03:07:15;13.20;;;4.90;;
417;SDS011;49;48.530;9.200;2024-01-27T03:09:42;10.83;;;4.87;;
417;SDS011;49;48.530;9.200;2024-01-27T03:12:09;10.90;;;5.00;;
417;SDS011;49;48.530;9.200;2024-01-27T03:14:36;14.07;;;5.53;;
417;SDS011;49;48.530;9.200;2024-01-27T03:17:05;11.77;;;5.67;;
417;SDS011;49;48.530;9.200;2024-01-27T03:19:32;12.30;;;4.27;;
417;SDS011;49;48.530;9.200;2024-01-27T03:21:59;13.13;;;5.63;;
417;SDS011;49;48.530;9.200;2024-01-27T03:24:26;10.53;;;5.17;;
417;SDS011;49;48.530;9.200;2024-01-27T03:26:53;12.70;;;5.60;;
417;SDS011;49;48.530;9.200;2024-01-27T03:29:20;19.30;;;5.80;;
417;SDS011;49;48.530;9.200;2024-01-27T03:31:46;6.00;;;4.43;;
417;SDS011;49;48.530;9.200;2024-01-27T03:34:15;10.00;;;5.23;;
417;SDS011;49;48.530;9.200;2024-01-27T03:36:47;13.67;;;5.93;;
417;SDS011;49;48.530;9.200;2024-01-27T03:39:14;13.50;;;5.60;;
417;SDS011;49;48.530;9.200;2024-01-27T03:41:41;18.53;;;6.20;;
417;SDS011;49;48.530;9.200;2024-01-27T03:44:08;14.57;;;6.20;;
417;SDS011;49;48.530;9.200;2024-01-27T03:46:35;11.43;;;6.40;;
417;SDS011;49;48.530;9.200;2024-01-27T03:49:04;13.90;;;6.73;;
417;SDS011;49;48.530;9.200;2024-01-27T03:51:32;13.03;;;6.90;;
417;SDS011;49;48.530;9.200;2024-01-27T03:53:59;8.73;;;5.23;;
417;SDS011;49;48.530;9.200;2024-01-27T03:56:26;12.90;;;7.30;;
417;SDS011;49;48.530;9.200;2024-01-27T03:58:52;16.17;;;7.20;;
417;SDS011;49;48.530;9.200;2024-01-27T04:01:19;10.37;;;5.83;;
417;SDS011;49;48.530;9.200;2024-01-27T04:03:46;14.87;;;7.03;;
417;SDS011;49;48.530;9.200;2024-01-27T04:06:16;17.53;;;7.37;;
417;SDS011;49;48.530;9.200;2024-01-27T04:08:44;13.47;;;6.60;;
417;SDS011;49;48.530;9.200;2024-01-27T04:11:18;15.17;;;7.93;;
417;SDS011;49;48.530;9.200;2024-01-27T04:13:47;10.53;;;6.40;;
417;SDS011;49;48.530;9.200;2024-01-27T04:16:14;16.07;;;6.27;;
417;SDS011;49;48.530;9.200;2024-01-27T04:18:41;12.57;;;6.60;;
417;SDS011;49;48.530;9.200;2024-01-27T04:21:08;14.70;;;7.00;;
417;SDS011;49;48.530;9.200;2024-01-27T04:23:35;17.50;;;6.53;;
417;SDS011;49;48.530;9.200;2024-01-27T04:26:03;17.43;;;6.40;;
417;SDS011;49;48.530;9.200;2024-01-27T04:28:31;12.57;;;6.67;;
417;SDS011;49;48.530;9.200;2024-01-27T04:30:58;14.13;;;7.30;;
417;SDS011;49;48.530;9.200;2024-01-27T04:33:25;11.10;;;6.60;;
417;SDS011;49;48.530;9.200;2024-01-27T04:35:52;7.80;;;5.90;;
417;SDS011;49;48.530;9.200;2024-01-27T04:38:19;13.53;;;7.00;;
417;SDS011;49;48.530;9.200;2024-01-27T04:40:46;12.23;;;7.23;;
417;SDS011;49;48.530;9.200;2024-01-27T04:43:15;14.40;;;7.20;;
417;SDS011;49;48.530;9.200;2024-01-27T04:45:43;13.13;;;8.07;;
417;SDS011;49;48.530;9.200;2024-01-27T04:48:10;13.73;;;7.87;;
417;SDS011;49;48.530;9.200;2024-01-27T04:50:37;10.80;;;7.33;;
417;SDS011;49;48.530;9.200;2024-01-27T04:53:03;13.50;;;7.87;;
417;SDS011;49;48.530;9.200;2024-01-27T04:55:31;12.10;;;7.50;;
417;SDS011;49;48.530;9.200;2024-01-27T04:57:58;16.00;;;8.07;;
417;SDS011;49;48.530;9.200;2024-01-27T05:00:27;14.70;;;8.37;;
417;SDS011;49;48.530;9.200;2024-01-27T05:02:54;19.00;;;8.47;;
417;SDS011;49;48.530;9.200;2024-01-27T05:05:22;13.60;;;8.00;;
417;SDS011;49;48.530;9.200;2024-01-27T05:07:49;16.60;;;7.70;;
417;SDS011;49;48.530;9.200;2024-01-27T05:10:16;15.33;;;6.87;;
417;SDS011;49;48.530;9.200;2024-01-27T05:12:43;15.13;;;6.80;;
417;SDS011;49;48.530;9.200;2024-01-27T05:15:10;10.00;;;6.27;;
417;SDS011;49;48.530;9.200;2024-01-27T05:17:38;11.80;;;5.70;;
417;SDS011;49;48.530;9.200;2024-01-27T05:20:06;11.77;;;5.00;;
417;SDS011;49;48.530;9.200;2024-01-27T05:22:33;8.57;;;5.00;;
417;SDS011;49;48.530;9.200;2024-01-27T05:25:00;9.80;;;4.83;;
417;SDS011;49;48.530;9.200;2024-01-27T05:27:28;12.53;;;6.00;;
417;SDS011;49;48.530;9.200;2024-01-27T05:29:55;6.73;;;5.07;;
417;SDS011;49;48.530;9.200;2024-01-27T05:32:22;10.83;;;5.67;;
417;SDS011;49;48.530;9.200;2024-01-27T05:34:50;11.30;;;5.97;;
417;SDS011;49;48.530;9.200;2024-01-27T05:37:17;16.93;;;5.40;;
417;SDS011;49;48.530;9.200;2024-01-27T05:39:43;8.43;;;5.87;;
417;SDS011;49;48.530;9.200;2024-01-27T05:42:10;13.53;;;6.57;;
417;SDS011;49;48.530;9.200;2024-01-27T05:44:37;11.80;;;6.40;;
417;SDS011;49;48.530;9.200;2024-01-27T05:47:05;13.47;;;6.37;;
417;SDS011;49;48.530;9.200;2024-01-27T05:49:32;14.20;;;7.40;;
417;SDS011;49;48.530;9.200;2024-01-27T05:52:00;13.30;;;6.43;;
417;SDS011;49;48.530;9.200;2024-01-27T05:54:27;9.53;;;5.70;;
417;SDS011;49;48.530;9.200;2024-01-27T05:56:54;17.33;;;6.20;;
417;SDS011;49;48.530;9.200;2024-01-27T05:59:21;13.33;;;6.53;;
417;SDS011;49;48.530;9.200;2024-01-27T06:01:48;17.30;;;7.30;;
417;SDS011;49;48.530;9.200;2024-01-27T06:04:14;17.43;;;7.07;;
417;SDS011;49;48.530;9.200;2024-01-27T06:06:41;10.90;;;5.70;;
417;SDS011;49;48.530;9.200;2024-01-27T06:09:09;10.60;;;6.70;;
417;SDS011;49;48.530;9.200;2024-01-27T06:11:37;14.27;;;7.10;;
417;SDS011;49;48.530;9.200;2024-01-27T06:14:04;14.13;;;7.43;;
417;SDS011;49;48.530;9.200;2024-01-27T06:16:31;13.77;;;6.57;;
417;SDS011;49;48.530;9.200;2024-01-27T06:19:00;12.13;;;5.10;;
417;SDS011;49;48.530;9.200;2024-01-27T06:21:27;12.43;;;5.63;;
417;SDS011;49;48.530;9.200;2024-01-27T06:23:54;11.23;;;6.37;;
417;SDS011;49;48.530;9.200;2024-01-27T06:26:22;16.27;;;6.87;;
417;SDS011;49;48.530;9.200;2024-01-27T06:28:49;9.80;;;5.57;;
417;SDS011;49;48.530;9.200;2024-01-27T06:31:16;15.43;;;6.53;;
417;SDS011;49;48.530;9.200;2024-01-27T06:33:42;12.57;;;7.27;;
417;SDS011;49;48.530;9.200;2024-01-27T06:36:09;17.07;;;6.80;;
417;SDS011;49;48.530;9.200;2024-01-27T06:38:37;8.83;;;5.60;;
417;SDS011;49;48.530;9.200;2024-01-27T06:41:04;11.87;;;7.80;;
417;SDS011;49;48.530;9.200;2024-01-27T06:43:32;14.80;;;7.80;;
417;SDS011;49;48.530;9.200;2024-01-27T06:45:59;22.03;;;7.30;;
417;SDS011;49;48.530;9.200;2024-01-27T06:48:26;8.30;;;5.57;;
417;SDS011;49;48.530;9.200;2024-01-27T06:50:52;19.40;;;8.70;;
417;SDS011;49;48.530;9.200;2024-01-27T06:53:19;14.57;;;8.57;;
417;SDS011;49;48.530;9.200;2024-01-27T06:55:46;15.07;;;8.07;;
417;SDS011;49;48.530;9.200;2024-01-27T06:58:13;12.90;;;7.90;;
417;SDS011;49;48.530;9.200;2024-01-27T07:00:41;19.73;;;8.50;;
417;SDS011;49;48.530;9.200;2024-01-27T07:03:09;15.40;;;7.53;;
417;SDS011;49;48.530;9.200;2024-01-27T07:05:36;10.63;;;6.50;;
417;SDS011;49;48.530;9.200;2024-01-27T07:08:08;14.23;;;7.27;;
417;SDS011;49;48.530;9.200;2024-01-27T07:10:35;11.60;;;5.80;;
417;SDS011;49;48.530;9.200;2024-01-27T07:13:02;17.30;;;6.73;;
417;SDS011;49;48.530;9.200;2024-01-27T07:15:31;13.27;;;7.57;;
417;SDS011;49;48.530;9.200;2024-01-27T07:17:59;11.40;;;7.03;;
417;SDS011;49;48.530;9.200;2024-01-27T07:20:26;13.53;;;7.30;;
417;SDS011;49;48.530;9.200;2024-01-27T07:22:54;12.20;;;6.73;;
417;SDS011;49;48.530;9.200;2024-01-27T07:25:21;9.40;;;6.30;;
417;SDS011;49;48.530;9.200;2024-01-27T07:27:48;11.27;;;6.80;;
417;SDS011;49;48.530;9.200;2024-01-27T07:30:15;11.80;;;5.87;;
417;SDS011;49;48.530;9.200;2024-01-27T07:32:42;13.33;;;7.97;;
417;SDS011;49;48.530;9.200;2024-01-27T07:35:12;12.83;;;7.37;;
417;SDS011;49;48.530;9.200;2024-01-27T07:37:39;9.57;;;6.30;;
417;SDS011;49;48.530;9.200;2024-01-27T07:40:06;9.37;;;6.17;;
417;SDS011;49;48.530;9.200;2024-01-27T07:42:34;25.83;;;8.70;;
417;SDS011;49;48.530;9.200;2024-01-27T07:45:01;23.70;;;13.83;;
417;SDS011;49;48.530;9.200;2024-01-27T07:47:28;20.70;;;11.77;;
417;SDS011;49;48.530;9.200;2024-01-27T07:49:55;16.03;;;8.60;;
417;SDS011;49;48.530;9.200;2024-01-27T07:52:23;14.40;;;7.50;;
417;SDS011;49;48.530;9.200;2024-01-27T07:54:50;13.00;;;9.23;;
417;SDS011;49;48.530;9.200;2024-01-27T07:57:17;21.90;;;9.20;;
417;SDS011;49;48.530;9.200;2024-01-27T07:59:45;27.67;;;9.80;;
417;SDS011;49;48.530;9.200;2024-01-27T08:02:12;14.50;;;8.30;;
417;SDS011;49;48.530;9.200;2024-01-27T08:04:39;43.30;;;9.03;;
417;SDS011;49;48.530;9.200;2024-01-27T08:07:05;76.03;;;10.10;;
417;SDS011;49;48.530;9.200;2024-01-27T08:09:36;43.67;;;11.17;;
417;SDS011;49;48.530;9.200;2024-01-27T08:12:03;26.70;;;9.47;;
417;SDS011;49;48.530;9.200;2024-01-27T08:14:30;45.17;;;9.97;;
417;SDS011;49;48.530;9.200;2024-01-27T08:16:58;71.80;;;11.27;;
417;SDS011;49;48.530;9.200;2024-01-27T08:19:25;57.13;;;11.93;;
417;SDS011;49;48.530;9.200;2024-01-27T08:21:52;85.67;;;11.73;;
417;SDS011;49;48.530;9.200;2024-01-27T08:24:19;80.20;;;11.60;;
417;SDS011;49;48.530;9.200;2024-01-27T08:26:49;33.90;;;9.67;;
417;SDS011;49;48.530;9.200;2024-01-27T08:29:16;58.20;;;11.90;;
417;SDS011;49;48.530;9.200;2024-01-27T08:31:43;39.87;;;10.43;;
417;SDS011;49;48.530;9.200;2024-01-27T08:34:10;40.67;;;11.20;;
417;SDS011;49;48.530;9.200;2024-01-27T08:36:39;48.90;;;11.93;;
417;SDS011;49;48.530;9.200;2024-01-27T08:39:06;45.77;;;10.50;;
417;SDS011;49;48.530;9.200;2024-01-27T08:41:33;35.20;;;9.77;;
417;SDS011;49;48.530;9.200;2024-01-27T08:44:02;65.23;;;10.30;;
417;SDS011;49;48.530;9.200;2024-01-27T08:46:30;86.93;;;10.13;;
417;SDS011;49;48.530;9.200;2024-01-27T08:48:56;51.97;;;9.47;;
417;SDS011;49;48.530;9.200;2024-01-27T08:51:24;58.23;;;9.40;;
417;SDS011;49;48.530;9.200;2024-01-27T08:53:51;50.47;;;11.03;;
417;SDS011;49;48.530;9.200;2024-01-27T08:56:18;94.27;;;9.40;;
417;SDS011;49;48.530;9.200;2024-01-27T08:58:45;90.97;;;9.17;;
417;SDS011;49;48.530;9.200;2024-01-27T09:01:15;123.37;;;9.57;;
417;SDS011;49;48.530;9.200;2024-01-27T09:03:42;37.53;;;9.17;;
417;SDS011;49;48.530;9.200;2024-01-27T09:06:09;88.00;;;10.30;;
417;SDS011;49;48.530;9.200;2024-01-27T09:08:36;61.80;;;10.60;;
417;SDS011;49;48.530;9.200;2024-01-27T09:11:03;46.63;;;10.77;;
417;SDS011;49;48.530;9.200;2024-01-27T09:13:30;40.43;;;9.00;;
417;SDS011;49;48.530;9.200;2024-01-27T09:15:57;44.93;;;9.80;;
417;SDS011;49;48.530;9.200;2024-01-27T09:18:25;29.87;;;10.40;;
417;SDS011;49;48.530;9.200;2024-01-27T09:20:53;40.23;;;9.87;;
417;SDS011;49;48.530;9.200;2024-01-27T09:23:19;65.20;;;10.00;;
417;SDS011;49;48.530;9.200;2024-01-27T09:25:46;49.03;;;10.90;;
417;SDS011;49;48.530;9.200;2024-01-27T09:28:13;88.30;;;13.20;;
417;SDS011;49;48.530;9.200;2024-01-27T09:30:41;46.97;;;10.67;;
417;SDS011;49;48.530;9.200;2024-01-27T09:33:08;37.87;;;11.90;;
417;SDS011;49;48.530;9.200;2024-01-27T09:35:36;55.73;;;11.70;;
417;SDS011;49;48.530;9.200;2024-01-27T09:38:03;65.53;;;13.27;;
417;SDS011;49;48.530;9.200;2024-01-27T09:40:32;49.87;;;11.87;;
417;SDS011;49;48.530;9.200;2024-01-27T09:42:59;56.83;;;14.13;;
417;SDS011;49;48.530;9.200;2024-01-27T09:45:26;51.00;;;10.90;;
417;SDS011;49;48.530;9.200;2024-01-27T09:47:54;59.50;;;11.17;;
417;SDS011;49;48.530;9.200;2024-01-27T09:50:23;50.00;;;10.47;;
417;SDS011;49;48.530;9.200;2024-01-27T09:52:51;13.20;;;8.83;;
417;SDS011;49;48.530;9.200;2024-01-27T09:55:19;33.43;;;10.07;;
417;SDS011;49;48.530;9.200;2024-01-27T09:57:46;22.63;;;9.77;;
417;SDS011;49;48.530;9.200;2024-01-27T10:00:14;40.67;;;9.80;;
417;SDS011;49;48.530;9.200;2024-01-27T10:02:42;100.03;;;11.23;;
417;SDS011;49;48.530;9.200;2024-01-27T10:05:11;18.67;;;9.70;;
417;SDS011;49;48.530;9.200;2024-01-27T10:07:39;65.73;;;9.40;;
417;SDS011;49;48.530;9.200;2024-01-27T10:10:08;46.00;;;9.40;;
417;SDS011;49;48.530;9.200;2024-01-27T10:12:37;24.37;;;7.77;;
417;SDS011;49;48.530;9.200;2024-01-27T10:15:18;42.93;;;10.10;;
417;SDS011;49;48.530;9.200;2024-01-27T10:17:45;32.63;;;10.07;;
417;SDS011;49;48.530;9.200;2024-01-27T10:20:12;99.77;;;10.70;;
417;SDS011;49;48.530;9.200;2024-01-27T10:22:41;114.10;;;11.53;;
417;SDS011;49;48.530;9.200;2024-01-27T10:25:11;36.07;;;11.10;;
417;SDS011;49;48.530;9.200;2024-01-27T10:27:39;106.37;;;12.70;;
417;SDS011;49;48.530;9.200;2024-01-27T10:30:07;47.43;;;10.93;;
417;SDS011;49;48.530;9.200;2024-01-27T10:32:43;31.70;;;11.80;;
417;SDS011;49;48.530;9.200;2024-01-27T10:35:20;48.03;;;11.37;;
417;SDS011;49;48.530;9.200;2024-01-27T10:37:50;29.67;;;10.20;;
417;SDS011;49;48.530;9.200;2024-01-27T10:40:20;41.80;;;11.13;;
417;SDS011;49;48.530;9.200;2024-01-27T10:42:51;61.03;;;11.13;;
417;SDS011;49;48.530;9.200;2024-01-27T10:45:27;49.10;;;11.67;;
417;SDS011;49;48.530;9.200;2024-01-27T10:47:59;35.20;;;10.63;;
417;SDS011;49;48.530;9.200;2024-01-27T10:50:28;20.20;;;11.50;;
417;SDS011;49;48.530;9.200;2024-01-27T10:52:55;26.63;;;12.00;;
417;SDS011;49;48.530;9.200;2024-01-27T10:55:25;25.23;;;12.60;;
417;SDS011;49;48.530;9.200;2024-01-27T10:57:53;35.50;;;12.43;;
417;SDS011;49;48.530;9.200;2024-01-27T11:00:21;21.80;;;12.00;;
417;SDS011;49;48.530;9.200;2024-01-27T11:02:50;31.63;;;11.03;;
417;SDS011;49;48.530;9.200;2024-01-27T11:05:20;18.97;;;12.10;;
417;SDS011;49;48.530;9.200;2024-01-27T11:07:50;17.63;;;12.30;;
417;SDS011;49;48.530;9.200;2024-01-27T11:10:17;19.73;;;12.07;;
417;SDS011;49;48.530;9.200;2024-01-27T11:12:46;25.63;;;13.20;;
417;SDS011;49;48.530;9.200;2024-01-27T11:15:14;23.63;;;13.10;;
417;SDS011;49;48.530;9.200;2024-01-27T11:17:41;22.57;;;11.63;;
417;SDS011;49;48.530;9.200;2024-01-27T11:20:12;22.13;;;13.03;;
417;SDS011;49;48.530;9.200;2024-01-27T11:23:31;22.90;;;13.40;;
417;SDS011;49;48.530;9.200;2024-01-27T11:26:03;18.93;;;12.80;;
417;SDS011;49;48.530;9.200;2024-01-27T11:28:32;24.83;;;11.30;;
417;SDS011;49;48.530;9.200;2024-01-27T11:31:02;26.17;;;15.33;;
417;SDS011;49;48.530;9.200;2024-01-27T11:33:30;22.00;;;13.20;;
417;SDS011;49;48.530;9.200;2024-01-27T11:36:00;22.70;;;12.13;;
417;SDS011;49;48.530;9.200;2024-01-27T11:38:27;15.40;;;10.20;;
417;SDS011;49;48.530;9.200;2024-01-27T11:40:54;17.30;;;10.27;;
417;SDS011;49;48.530;9.200;2024-01-27T11:43:21;19.53;;;12.77;;
417;SDS011;49;48.530;9.200;2024-01-27T11:45:56;20.77;;;12.57;;
417;SDS011;49;48.530;9.200;2024-01-27T11:48:23;18.73;;;11.97;;
417;SDS011;49;48.530;9.200;2024-01-27T11:51:01;20.10;;;11.47;;
417;SDS011;49;48.530;9.200;2024-01-27T11:53:29;17.00;;;11.53;;
417;SDS011;49;48.530;9.200;2024-01-27T11:55:56;24.70;;;12.87;;
417;SDS011;49;48.530;9.200;2024-01-27T11:58:24;18.93;;;11.37;;
417;SDS011;49;48.530;9.200;2024-01-27T12:00:51;24.27;;;11.70;;
417;SDS011;49;48.530;9.200;2024-01-27T12:03:20;19.70;;;12.87;;
417;SDS011;49;48.530;9.200;2024-01-27T12:05:47;26.77;;;12.90;;
417;SDS011;49;48.530;9.200;2024-01-27T12:08:14;19.63;;;11.03;;
417;SDS011;49;48.530;9.200;2024-01-27T12:10:43;17.57;;;8.63;;
417;SDS011;49;48.530;9.200;2024-01-27T12:13:10;17.10;;;6.67;;
417;SDS011;49;48.530;9.200;2024-01-27T12:15:37;17.33;;;6.67;;
417;SDS011;49;48.530;9.200;2024-01-27T12:18:04;21.57;;;6.83;;
417;SDS011;49;48.530;9.200;2024-01-27T12:20:33;21.80;;;8.50;;
417;SDS011;49;48.530;9.200;2024-01-27T12:23:03;24.13;;;9.23;;
417;SDS011;49;48.530;9.200;2024-01-27T12:25:30;15.37;;;7.80;;
417;SDS011;49;48.530;9.200;2024-01-27T12:27:57;21.97;;;9.53;;
417;SDS011;49;48.530;9.200;2024-01-27T12:30:27;16.23;;;8.00;;
417;SDS011;49;48.530;9.200;2024-01-27T12:32:54;24.73;;;8.77;;
417;SDS011;49;48.530;9.200;2024-01-27T12:35:21;19.70;;;8.00;;
417;SDS011;49;48.530;9.200;2024-01-27T12:37:51;17.23;;;7.17;;
417;SDS011;49;48.530;9.200;2024-01-27T12:40:19;19.97;;;7.50;;
417;SDS011;49;48.530;9.200;2024-01-27T12:42:46;16.93;;;7.93;;
417;SDS011;49;48.530;9.200;2024-01-27T12:45:13;24.30;;;7.30;;
417;SDS011;49;48.530;9.200;2024-01-27T12:47:40;18.87;;;6.73;;
417;SDS011;49;48.530;9.200;2024-01-27T12:50:08;18.27;;;6.63;;
417;SDS011;49;48.530;9.200;2024-01-27T12:52:35;18.90;;;5.63;;
417;SDS011;49;48.530;9.200;2024-01-27T12:55:04;20.13;;;6.83;;
417;SDS011;49;48.530;9.200;2024-01-27T12:57:32;17.90;;;6.50;;
417;SDS011;49;48.530;9.200;2024-01-27T12:59:59;17.90;;;6.90;;
417;SDS011;49;48.530;9.200;2024-01-27T13:02:26;24.57;;;6.60;;
417;SDS011;49;48.530;9.200;2024-01-27T13:04:54;13.73;;;5.00;;
417;SDS011;49;48.530;9.200;2024-01-27T13:07:21;23.10;;;8.50;;
417;SDS011;49;48.530;9.200;2024-01-27T13:09:48;15.00;;;5.90;;
417;SDS011;49;48.530;9.200;2024-01-27T13:12:16;20.63;;;6.97;;
417;SDS011;49;48.530;9.200;2024-01-27T13:14:43;13.63;;;5.57;;
417;SDS011;49;48.530;9.200;2024-01-27T13:17:12;13.40;;;6.80;;
417;SDS011;49;48.530;9.200;2024-01-27T13:19:40;14.03;;;5.23;;
417;SDS011;49;48.530;9.200;2024-01-27T13:22:07;16.10;;;5.90;;
417;SDS011;49;48.530;9.200;2024-01-27T13:24:34;51.93;;;19.50;;
417;SDS011;49;48.530;9.200;2024-01-27T13:27:01;27.10;;;11.03;;
417;SDS011;49;48.530;9.200;2024-01-27T13:29:29;20.83;;;11.90;;
417;SDS011;49;48.530;9.200;2024-01-27T13:31:57;23.03;;;6.47;;
417;SDS011;49;48.530;9.200;2024-01-27T13:34:26;15.00;;;6.10;;
417;SDS011;49;48.530;9.200;2024-01-27T13:36:55;19.83;;;8.57;;
417;SDS011;49;48.530;9.200;2024-01-27T13:39:23;17.63;;;7.77;;
417;SDS011;49;48.530;9.200;2024-01-27T13:41:50;13.93;;;6.07;;
417;SDS011;49;48.530;9.200;2024-01-27T13:44:17;14.97;;;6.50;;
417;SDS011;49;48.530;9.200;2024-01-27T13:46:45;14.27;;;6.10;;
417;SDS011;49;48.530;9.200;2024-01-27T13:49:12;23.50;;;7.07;;
417;SDS011;49;48.530;9.200;2024-01-27T13:51:40;13.87;;;6.40;;
417;SDS011;49;48.530;9.200;2024-01-27T13:54:06;12.83;;;5.73;;
417;SDS011;49;48.530;9.200;2024-01-27T13:56:34;20.87;;;5.93;;
417;SDS011;49;48.530;9.200;2024-01-27T13:59:01;15.97;;;5.97;;
417;SDS011;49;48.530;9.200;2024-01-27T14:01:31;12.27;;;5.73;;
417;SDS011;49;48.530;9.200;2024-01-27T14:03:59;14.60;;;5.53;;
417;SDS011;49;48.530;9.200;2024-01-27T14:06:26;18.83;;;6.80;;
417;SDS011;49;48.530;9.200;2024-01-27T14:08:53;16.50;;;6.23;;
417;SDS011;49;48.530;9.200;2024-01-27T14:11:20;25.00;;;8.30;;
417;SDS011;49;48.530;9.200;2024-01-27T14:13:47;14.60;;;7.73;;
417;SDS011;49;48.530;9.200;2024-01-27T14:16:14;23.87;;;8.80;;
417;SDS011;49;48.530;9.200;2024-01-27T14:18:41;19.00;;;6.30;;
417;SDS011;49;48.530;9.200;2024-01-27T14:21:09;12.97;;;6.00;;
417;SDS011;49;48.530;9.200;2024-01-27T14:23:37;12.80;;;5.83;;
417;SDS011;49;48.530;9.200;2024-01-27T14:26:04;17.80;;;6.13;;
417;SDS011;49;48.530;9.200;2024-01-27T14:28:33;16.03;;;6.40;;
417;SDS011;49;48.530;9.200;2024-01-27T14:31:00;19.17;;;6.87;;
417;SDS011;49;48.530;9.200;2024-01-27T14:33:27;21.77;;;5.87;;
417;SDS011;49;48.530;9.200;2024-01-27T14:35:57;23.60;;;5.93;;
417;SDS011;49;48.530;9.200;2024-01-27T14:38:29;17.33;;;6.93;;
417;SDS011;49;48.530;9.200;2024-01-27T14:40:56;18.20;;;6.13;;
417;SDS011;49;48.530;9.200;2024-01-27T14:43:23;17.97;;;6.70;;
417;SDS011;49;48.530;9.200;2024-01-27T14:45:52;33.80;;;10.80;;
417;SDS011;49;48.530;9.200;2024-01-27T14:48:20;21.63;;;7.87;;
417;SDS011;49;48.530;9.200;2024-01-27T14:50:47;15.53;;;6.20;;
417;SDS011;49;48.530;9.200;2024-01-27T14:53:17;15.43;;;5.80;;
417;SDS011;49;48.530;9.200;2024-01-27T14:55:46;18.43;;;5.93;;
417;SDS011;49;48.530;9.200;2024-01-27T14:58:13;14.90;;;5.83;;
417;SDS011;49;48.530;9.200;2024-01-27T15:00:39;20.27;;;7.23;;
417;SDS011;49;48.530;9.200;2024-01-27T15:03:06;17.50;;;6.47;;
417;SDS011;49;48.530;9.200;2024-01-27T15:05:33;17.53;;;6.30;;
417;SDS011;49;48.530;9.200;2024-01-27T15:08:04;16.70;;;6.40;;
417;SDS011;49;48.530;9.200;2024-01-27T15:10:31;18.30;;;7.10;;
417;SDS011;49;48.530;9.200;2024-01-27T15:12:59;18.60;;;7.80;;
417;SDS011;49;48.530;9.200;2024-01-27T15:15:26;18.10;;;7.53;;
417;SDS011;49;48.530;9.200;2024-01-27T15:17:53;12.43;;;6.73;;
417;SDS011;49;48.530;9.200;2024-01-27T15:20:25;14.40;;;6.90;;
417;SDS011;49;48.530;9.200;2024-01-27T15:22:52;9.30;;;6.33;;
417;SDS011;49;48.530;9.200;2024-01-27T15:25:19;22.00;;;6.73;;
417;SDS011;49;48.530;9.200;2024-01-27T15:27:46;12.67;;;5.70;;
417;SDS011;49;48.530;9.200;2024-01-27T15:30:17;18.27;;;7.17;;
417;SDS011;49;48.530;9.200;2024-01-27T15:32:44;24.67;;;7.93;;
417;SDS011;49;48.530;9.200;2024-01-27T15:35:12;16.97;;;6.73;;
417;SDS011;49;48.530;9.200;2024-01-27T15:37:39;25.17;;;7.17;;
417;SDS011;49;48.530;9.200;2024-01-27T15:40:07;22.13;;;7.60;;
417;SDS011;49;48.530;9.200;2024-01-27T15:42:35;31.80;;;8.00;;
417;SDS011;49;48.530;9.200;2024-01-27T15:45:03;21.43;;;7.27;;
417;SDS011;49;48.530;9.200;2024-01-27T15:47:32;14.23;;;7.13;;